sensor_id;sensor_type;location;lat;lon;timestamp;pressure;altitude;pressure_sealevel;temperature;humidity
73063;BME280;61230;46.328;19.972;2023-03-05T00:01:20;100437.53;;;2.05;78.70
73063;BME280;61230;46.328;19.972;2023-03-05T00:03:53;100439.91;;;2.09;78.81
73063;BME280;61230;46.328;19.972;2023-03-05T00:06:22;100392.47;;;1.76;78.75
73063;BME280;61230;46.328;19.972;2023-03-05T00:08:50;100401.09;;;1.77;79.01
73063;BME280;61230;46.328;19.972;2023-03-05T00:11:20;100399.28;;;1.79;79.82
73063;BME280;61230;46.328;19.972;2023-03-05T00:13:50;100440.00;;;1.92;80.06
73063;BME280;61230;46.328;19.972;2023-03-05T00:16:20;100431.13;;;1.96;79.90
73063;BME280;61230;46.328;19.972;2023-03-05T00:18:48;100378.53;;;1.63;79.48
73063;BME280;61230;46.328;19.972;2023-03-05T00:21:33;100437.59;;;1.89;80.22
73063;BME280;61230;46.328;19.972;2023-03-05T00:24:05;100442.09;;;1.86;80.65
73063;BME280;61230;46.328;19.972;2023-03-05T00:26:35;100443.78;;;1.87;80.56
73063;BME280;61230;46.328;19.972;2023-03-05T00:29:05;100432.06;;;1.80;81.09
73063;BME280;61230;46.328;19.972;2023-03-05T00:31:34;100435.66;;;1.77;81.14
73063;BME280;61230;46.328;19.972;2023-03-05T00:34:08;100437.69;;;1.72;81.98
73063;BME280;61230;46.328;19.972;2023-03-05T00:36:40;100447.31;;;1.70;81.67
73063;BME280;61230;46.328;19.972;2023-03-05T00:39:08;100444.78;;;1.68;82.02
73063;BME280;61230;46.328;19.972;2023-03-05T00:41:36;100434.56;;;1.65;82.38
73063;BME280;61230;46.328;19.972;2023-03-05T00:44:04;100435.69;;;1.61;82.11
73063;BME280;61230;46.328;19.972;2023-03-05T00:46:32;100439.94;;;1.62;82.45
73063;BME280;61230;46.328;19.972;2023-03-05T00:49:00;100434.34;;;1.54;82.93
73063;BME280;61230;46.328;19.972;2023-03-05T00:51:27;100441.19;;;1.55;82.83
73063;BME280;61230;46.328;19.972;2023-03-05T00:53:55;100431.00;;;1.52;83.06
73063;BME280;61230;46.328;19.972;2023-03-05T00:56:26;100425.56;;;1.41;83.54
73063;BME280;61230;46.328;19.972;2023-03-05T00:58:54;100430.59;;;1.44;83.54
73063;BME280;61230;46.328;19.972;2023-03-05T01:01:22;100426.56;;;1.39;84.09
73063;BME280;61230;46.328;19.972;2023-03-05T01:03:51;100422.78;;;1.29;84.63
73063;BME280;61230;46.328;19.972;2023-03-05T01:06:18;100428.47;;;1.35;84.34
73063;BME280;61230;46.328;19.972;2023-03-05T01:08:46;100421.88;;;1.30;84.62
73063;BME280;61230;46.328;19.972;2023-03-05T01:11:15;100423.87;;;1.25;85.25
73063;BME280;61230;46.328;19.972;2023-03-05T01:13:42;100422.34;;;1.21;85.52
73063;BME280;61230;46.328;19.972;2023-03-05T01:16:10;100423.34;;;1.18;85.69
73063;BME280;61230;46.328;19.972;2023-03-05T01:18:38;100412.66;;;1.24;85.33
73063;BME280;61230;46.328;19.972;2023-03-05T01:21:07;100406.13;;;1.17;85.89
73063;BME280;61230;46.328;19.972;2023-03-05T01:23:34;100423.34;;;1.18;85.90
73063;BME280;61230;46.328;19.972;2023-03-05T01:26:04;100426.19;;;1.13;86.17
73063;BME280;61230;46.328;19.972;2023-03-05T01:28:32;100425.19;;;1.16;86.40
73063;BME280;61230;46.328;19.972;2023-03-05T01:31:00;100425.94;;;1.18;86.31
73063;BME280;61230;46.328;19.972;2023-03-05T01:33:28;100417.91;;;1.07;86.42
73063;BME280;61230;46.328;19.972;2023-03-05T01:35:55;100412.72;;;1.07;87.04
73063;BME280;61230;46.328;19.972;2023-03-05T01:38:23;100434.34;;;0.90;87.92
73063;BME280;61230;46.328;19.972;2023-03-05T01:40:51;100427.16;;;0.95;87.86
73063;BME280;61230;46.328;19.972;2023-03-05T01:43:26;100434.09;;;0.95;87.81
73063;BME280;61230;46.328;19.972;2023-03-05T01:48:45;100435.78;;;0.96;88.01
73063;BME280;61230;46.328;19.972;2023-03-05T01:51:15;100434.25;;;0.92;87.98
73063;BME280;61230;46.328;19.972;2023-03-05T01:53:43;100443.59;;;0.94;88.11
73063;BME280;61230;46.328;19.972;2023-03-05T01:56:11;100393.34;;;0.48;89.13
73063;BME280;61230;46.328;19.972;2023-03-05T01:58:39;100441.88;;;0.78;89.02
73063;BME280;61230;46.328;19.972;2023-03-05T02:01:07;100439.06;;;0.82;88.81
73063;BME280;61230;46.328;19.972;2023-03-05T02:03:36;100432.28;;;0.80;89.50
73063;BME280;61230;46.328;19.972;2023-03-05T02:06:04;100427.88;;;0.82;89.34
73063;BME280;61230;46.328;19.972;2023-03-05T02:08:32;100426.50;;;0.75;89.77
73063;BME280;61230;46.328;19.972;2023-03-05T02:11:00;100379.59;;;0.48;89.57
73063;BME280;61230;46.328;19.972;2023-03-05T02:13:31;100436.03;;;0.74;89.91
73063;BME280;61230;46.328;19.972;2023-03-05T02:16:00;100433.44;;;0.74;89.90
73063;BME280;61230;46.328;19.972;2023-03-05T02:18:29;100433.28;;;0.77;89.59
73063;BME280;61230;46.328;19.972;2023-03-05T02:20:59;100378.75;;;0.47;89.48
73063;BME280;61230;46.328;19.972;2023-03-05T02:23:30;100436.56;;;0.81;89.36
73063;BME280;61230;46.328;19.972;2023-03-05T02:26:00;100434.97;;;0.78;89.60
73063;BME280;61230;46.328;19.972;2023-03-05T02:30:55;100445.16;;;0.81;89.36
73063;BME280;61230;46.328;19.972;2023-03-05T02:33:23;100445.75;;;0.86;89.07
73063;BME280;61230;46.328;19.972;2023-03-05T02:35:51;100439.81;;;0.84;89.15
73063;BME280;61230;46.328;19.972;2023-03-05T02:38:20;100437.41;;;0.81;89.37
73063;BME280;61230;46.328;19.972;2023-03-05T02:40:48;100443.63;;;0.77;89.51
73063;BME280;61230;46.328;19.972;2023-03-05T02:43:16;100443.09;;;0.88;88.98
73063;BME280;61230;46.328;19.972;2023-03-05T02:45:43;100441.41;;;0.87;88.84
73063;BME280;61230;46.328;19.972;2023-03-05T02:48:11;100450.09;;;0.86;88.93
73063;BME280;61230;46.328;19.972;2023-03-05T02:50:40;100389.78;;;0.51;88.90
73063;BME280;61230;46.328;19.972;2023-03-05T02:53:08;100435.34;;;0.88;88.65
73063;BME280;61230;46.328;19.972;2023-03-05T02:55:36;100392.19;;;0.54;88.68
73063;BME280;61230;46.328;19.972;2023-03-05T02:58:04;100440.87;;;0.80;89.14
73063;BME280;61230;46.328;19.972;2023-03-05T03:00:32;100438.44;;;0.77;89.15
73063;BME280;61230;46.328;19.972;2023-03-05T03:02:59;100440.03;;;0.80;88.80
73063;BME280;61230;46.328;19.972;2023-03-05T03:05:27;100436.94;;;0.73;89.01
73063;BME280;61230;46.328;19.972;2023-03-05T03:07:55;100442.19;;;0.72;89.15
73063;BME280;61230;46.328;19.972;2023-03-05T03:10:22;100440.53;;;0.71;88.96
73063;BME280;61230;46.328;19.972;2023-03-05T03:12:50;100440.53;;;0.71;89.18
73063;BME280;61230;46.328;19.972;2023-03-05T03:15:18;100446.31;;;0.76;88.69
73063;BME280;61230;46.328;19.972;2023-03-05T03:17:45;100444.78;;;0.72;88.80
73063;BME280;61230;46.328;19.972;2023-03-05T03:20:15;100443.94;;;0.71;88.89
73063;BME280;61230;46.328;19.972;2023-03-05T03:22:45;100448.53;;;0.66;88.95
73063;BME280;61230;46.328;19.972;2023-03-05T03:25:18;100443.50;;;0.63;89.18
73063;BME280;61230;46.328;19.972;2023-03-05T03:27:46;100445.72;;;0.53;89.78
73063;BME280;61230;46.328;19.972;2023-03-05T03:30:14;100446.25;;;0.43;90.33
73063;BME280;61230;46.328;19.972;2023-03-05T03:32:42;100394.28;;;0.13;90.19
73063;BME280;61230;46.328;19.972;2023-03-05T03:35:11;100449.06;;;0.38;91.01
73063;BME280;61230;46.328;19.972;2023-03-05T03:37:39;100439.91;;;0.31;91.05
73063;BME280;61230;46.328;19.972;2023-03-05T03:40:07;100428.38;;;0.38;91.00
73063;BME280;61230;46.328;19.972;2023-03-05T03:42:35;100378.22;;;0.07;90.67
73063;BME280;61230;46.328;19.972;2023-03-05T03:45:03;100438.97;;;0.34;91.09
73063;BME280;61230;46.328;19.972;2023-03-05T03:47:30;100433.63;;;0.37;91.15
73063;BME280;61230;46.328;19.972;2023-03-05T03:49:58;100378.00;;;0.11;90.56
73063;BME280;61230;46.328;19.972;2023-03-05T03:52:26;100438.31;;;0.46;90.49
73063;BME280;61230;46.328;19.972;2023-03-05T03:54:53;100438.13;;;0.33;90.86
73063;BME280;61230;46.328;19.972;2023-03-05T03:57:28;100438.88;;;0.35;90.59
73063;BME280;61230;46.328;19.972;2023-03-05T03:59:56;100440.75;;;0.32;91.34
73063;BME280;61230;46.328;19.972;2023-03-05T04:02:24;100439.31;;;0.26;91.25
73063;BME280;61230;46.328;19.972;2023-03-05T04:04:52;100430.41;;;0.32;90.83
73063;BME280;61230;46.328;19.972;2023-03-05T04:07:20;100423.34;;;0.18;91.22
73063;BME280;61230;46.328;19.972;2023-03-05T04:09:47;100430.78;;;0.07;92.13
73063;BME280;61230;46.328;19.972;2023-03-05T04:12:15;100423.63;;;0.12;91.72
73063;BME280;61230;46.328;19.972;2023-03-05T04:14:45;100427.16;;;0.11;91.87
73063;BME280;61230;46.328;19.972;2023-03-05T04:17:14;100430.50;;;0.13;91.59
73063;BME280;61230;46.328;19.972;2023-03-05T04:19:42;100433.00;;;0.15;91.38
73063;BME280;61230;46.328;19.972;2023-03-05T04:22:12;100425.19;;;0.16;91.42
73063;BME280;61230;46.328;19.972;2023-03-05T04:24:40;100427.47;;;0.22;91.01
73063;BME280;61230;46.328;19.972;2023-03-05T04:27:08;100429.25;;;0.20;91.04
73063;BME280;61230;46.328;19.972;2023-03-05T04:29:36;100435.88;;;0.26;90.73
73063;BME280;61230;46.328;19.972;2023-03-05T04:32:04;100435.22;;;0.22;90.91
73063;BME280;61230;46.328;19.972;2023-03-05T04:34:32;100432.16;;;0.31;90.25
73063;BME280;61230;46.328;19.972;2023-03-05T04:36:59;100427.22;;;0.27;90.36
73063;BME280;61230;46.328;19.972;2023-03-05T04:39:27;100425.19;;;0.16;90.79
73063;BME280;61230;46.328;19.972;2023-03-05T04:41:55;100428.19;;;0.07;91.39
73063;BME280;61230;46.328;19.972;2023-03-05T04:44:22;100371.69;;;-0.18;91.10
73063;BME280;61230;46.328;19.972;2023-03-05T04:46:52;100429.34;;;0.19;90.83
73063;BME280;61230;46.328;19.972;2023-03-05T04:49:19;100431.78;;;0.05;91.48
73063;BME280;61230;46.328;19.972;2023-03-05T04:51:47;100427.00;;;0.14;91.25
73063;BME280;61230;46.328;19.972;2023-03-05T04:54:15;100433.97;;;0.12;91.48
73063;BME280;61230;46.328;19.972;2023-03-05T04:56:43;100440.22;;;0.08;91.42
73063;BME280;61230;46.328;19.972;2023-03-05T04:59:11;100438.03;;;0.18;90.78
73063;BME280;61230;46.328;19.972;2023-03-05T05:01:38;100426.66;;;0.03;91.73
73063;BME280;61230;46.328;19.972;2023-03-05T05:04:06;100436.09;;;0.04;91.47
73063;BME280;61230;46.328;19.972;2023-03-05T05:06:34;100441.88;;;0.09;90.98
73063;BME280;61230;46.328;19.972;2023-03-05T05:09:01;100381.91;;;-0.33;91.67
73063;BME280;61230;46.328;19.972;2023-03-05T05:11:29;100431.22;;;-0.02;91.89
73063;BME280;61230;46.328;19.972;2023-03-05T05:13:57;100435.94;;;-0.10;92.04
73063;BME280;61230;46.328;19.972;2023-03-05T05:16:24;100442.69;;;-0.08;92.11
73063;BME280;61230;46.328;19.972;2023-03-05T05:18:52;100436.53;;;-0.05;92.32
73063;BME280;61230;46.328;19.972;2023-03-05T05:21:20;100447.44;;;0.02;91.77
73063;BME280;61230;46.328;19.972;2023-03-05T05:23:48;100451.34;;;0.10;91.17
73063;BME280;61230;46.328;19.972;2023-03-05T05:26:16;100462.56;;;0.09;91.41
73063;BME280;61230;46.328;19.972;2023-03-05T05:28:43;100458.19;;;0.11;91.09
73063;BME280;61230;46.328;19.972;2023-03-05T05:31:13;100396.06;;;-0.23;91.01
73063;BME280;61230;46.328;19.972;2023-03-05T05:33:42;100451.78;;;0.01;91.78
73063;BME280;61230;46.328;19.972;2023-03-05T05:36:12;100456.94;;;0.01;91.50
73063;BME280;61230;46.328;19.972;2023-03-05T05:38:41;100448.13;;;0.05;91.75
73063;BME280;61230;46.328;19.972;2023-03-05T05:41:12;100449.94;;;0.03;91.60
73063;BME280;61230;46.328;19.972;2023-03-05T05:43:40;100456.66;;;0.07;91.50
73063;BME280;61230;46.328;19.972;2023-03-05T05:46:11;100438.84;;;0.01;91.71
73063;BME280;61230;46.328;19.972;2023-03-05T05:48:39;100418.12;;;-0.16;91.72
73063;BME280;61230;46.328;19.972;2023-03-05T05:51:10;100469.06;;;0.18;91.12
73063;BME280;61230;46.328;19.972;2023-03-05T05:53:38;100469.91;;;0.18;91.08
73063;BME280;61230;46.328;19.972;2023-03-05T05:56:08;100479.25;;;0.21;90.81
73063;BME280;61230;46.328;19.972;2023-03-05T05:58:37;100478.13;;;0.26;90.98
73063;BME280;61230;46.328;19.972;2023-03-05T06:01:29;100479.72;;;0.29;90.96
73063;BME280;61230;46.328;19.972;2023-03-05T06:03:57;100427.00;;;-0.03;90.11
73063;BME280;61230;46.328;19.972;2023-03-05T06:06:25;100488.94;;;0.34;90.28
73063;BME280;61230;46.328;19.972;2023-03-05T06:08:54;100482.00;;;0.35;89.89
73063;BME280;61230;46.328;19.972;2023-03-05T06:11:22;100487.75;;;0.41;90.54
73063;BME280;61230;46.328;19.972;2023-03-05T06:13:50;100432.47;;;0.08;89.84
73063;BME280;61230;46.328;19.972;2023-03-05T06:16:22;100470.81;;;0.34;88.90
73063;BME280;61230;46.328;19.972;2023-03-05T06:18:51;100489.44;;;0.42;88.65
73063;BME280;61230;46.328;19.972;2023-03-05T06:21:20;100491.37;;;0.54;89.63
73063;BME280;61230;46.328;19.972;2023-03-05T06:23:48;100494.06;;;0.70;89.46
73063;BME280;61230;46.328;19.972;2023-03-05T06:26:19;100490.19;;;0.79;88.72
73063;BME280;61230;46.328;19.972;2023-03-05T06:28:47;100487.28;;;0.85;88.08
73063;BME280;61230;46.328;19.972;2023-03-05T06:31:17;100490.22;;;0.94;88.46
73063;BME280;61230;46.328;19.972;2023-03-05T06:33:47;100493.19;;;1.04;88.89
73063;BME280;61230;46.328;19.972;2023-03-05T06:36:16;100492.88;;;1.10;87.43
73063;BME280;61230;46.328;19.972;2023-03-05T06:38:45;100494.22;;;1.17;87.41
73063;BME280;61230;46.328;19.972;2023-03-05T06:41:18;100486.44;;;1.17;87.33
73063;BME280;61230;46.328;19.972;2023-03-05T06:43:46;100506.28;;;1.34;86.95
73063;BME280;61230;46.328;19.972;2023-03-05T06:48:44;100498.41;;;1.52;86.39
73063;BME280;61230;46.328;19.972;2023-03-05T06:51:22;100502.84;;;1.66;85.94
73063;BME280;61230;46.328;19.972;2023-03-05T06:53:52;100512.63;;;1.61;86.55
73063;BME280;61230;46.328;19.972;2023-03-05T06:56:21;100449.16;;;1.52;85.73
73063;BME280;61230;46.328;19.972;2023-03-05T06:58:50;100501.16;;;1.96;85.57
73063;BME280;61230;46.328;19.972;2023-03-05T07:01:19;100495.13;;;2.11;85.03
73063;BME280;61230;46.328;19.972;2023-03-05T07:03:51;100514.87;;;2.29;84.99
73063;BME280;61230;46.328;19.972;2023-03-05T07:06:20;100502.88;;;2.43;84.35
73063;BME280;61230;46.328;19.972;2023-03-05T07:08:49;100498.94;;;2.36;85.03
73063;BME280;61230;46.328;19.972;2023-03-05T07:11:18;100454.28;;;2.15;84.88
73063;BME280;61230;46.328;19.972;2023-03-05T07:13:48;100506.19;;;2.60;84.16
73063;BME280;61230;46.328;19.972;2023-03-05T07:16:21;100507.44;;;2.83;83.15
73063;BME280;61230;46.328;19.972;2023-03-05T07:18:50;100512.75;;;2.96;82.65
73063;BME280;61230;46.328;19.972;2023-03-05T07:21:21;100501.34;;;2.98;83.20
73063;BME280;61230;46.328;19.972;2023-03-05T07:23:52;100510.28;;;3.08;82.00
73063;BME280;61230;46.328;19.972;2023-03-05T07:26:20;100511.66;;;3.14;82.44
73063;BME280;61230;46.328;19.972;2023-03-05T07:28:47;100517.44;;;3.19;81.69
73063;BME280;61230;46.328;19.972;2023-03-05T07:31:20;100463.78;;;3.04;81.77
73063;BME280;61230;46.328;19.972;2023-03-05T07:33:49;100515.00;;;3.30;80.65
73063;BME280;61230;46.328;19.972;2023-03-05T07:36:17;100522.75;;;3.45;80.85
73063;BME280;61230;46.328;19.972;2023-03-05T07:38:45;100494.03;;;3.33;80.55
73063;BME280;61230;46.328;19.972;2023-03-05T07:41:15;100459.12;;;3.09;79.68
73063;BME280;61230;46.328;19.972;2023-03-05T07:43:48;100451.97;;;3.40;79.87
73063;BME280;61230;46.328;19.972;2023-03-05T07:46:18;100494.25;;;3.85;79.57
73063;BME280;61230;46.328;19.972;2023-03-05T07:48:47;100495.28;;;3.82;78.73
73063;BME280;61230;46.328;19.972;2023-03-05T07:51:17;100445.81;;;3.41;78.21
73063;BME280;61230;46.328;19.972;2023-03-05T07:53:48;100502.06;;;3.85;79.12
73063;BME280;61230;46.328;19.972;2023-03-05T07:56:32;100504.00;;;3.95;79.46
73063;BME280;61230;46.328;19.972;2023-03-05T07:59:07;100496.59;;;4.16;78.49
73063;BME280;61230;46.328;19.972;2023-03-05T08:01:37;100495.81;;;4.28;77.37
73063;BME280;61230;46.328;19.972;2023-03-05T08:04:06;100501.75;;;4.30;76.91
73063;BME280;61230;46.328;19.972;2023-03-05T08:06:37;100492.75;;;4.61;75.33
73063;BME280;61230;46.328;19.972;2023-03-05T08:09:05;100494.69;;;4.84;75.80
73063;BME280;61230;46.328;19.972;2023-03-05T08:11:32;100502.78;;;4.67;74.84
73063;BME280;61230;46.328;19.972;2023-03-05T08:14:00;100499.53;;;4.63;74.84
73063;BME280;61230;46.328;19.972;2023-03-05T08:16:28;100505.84;;;4.74;73.98
73063;BME280;61230;46.328;19.972;2023-03-05T08:18:56;100501.59;;;4.85;75.03
73063;BME280;61230;46.328;19.972;2023-03-05T08:21:30;100503.03;;;4.77;74.24
73063;BME280;61230;46.328;19.972;2023-03-05T08:24:07;100507.28;;;4.78;74.53
73063;BME280;61230;46.328;19.972;2023-03-05T08:26:36;100505.75;;;4.88;74.35
73063;BME280;61230;46.328;19.972;2023-03-05T08:29:06;100504.94;;;5.12;74.60
73063;BME280;61230;46.328;19.972;2023-03-05T08:31:35;100506.78;;;4.98;73.78
73063;BME280;61230;46.328;19.972;2023-03-05T08:34:03;100498.75;;;5.01;72.96
73063;BME280;61230;46.328;19.972;2023-03-05T08:36:31;100497.44;;;5.08;72.83
73063;BME280;61230;46.328;19.972;2023-03-05T08:38:59;100493.66;;;5.25;72.83
73063;BME280;61230;46.328;19.972;2023-03-05T08:41:27;100492.91;;;5.35;71.86
73063;BME280;61230;46.328;19.972;2023-03-05T08:43:55;100505.00;;;5.49;70.20
73063;BME280;61230;46.328;19.972;2023-03-05T08:46:22;100497.28;;;5.35;70.52
73063;BME280;61230;46.328;19.972;2023-03-05T08:48:50;100488.13;;;5.42;69.82
73063;BME280;61230;46.328;19.972;2023-03-05T08:51:20;100491.66;;;5.53;69.33
73063;BME280;61230;46.328;19.972;2023-03-05T08:53:49;100481.09;;;5.67;68.60
73063;BME280;61230;46.328;19.972;2023-03-05T08:56:17;100438.84;;;5.50;67.57
73063;BME280;61230;46.328;19.972;2023-03-05T08:58:45;100432.22;;;5.57;66.91
73063;BME280;61230;46.328;19.972;2023-03-05T09:01:14;100476.09;;;6.01;66.64
73063;BME280;61230;46.328;19.972;2023-03-05T09:03:42;100475.25;;;6.00;65.87
73063;BME280;61230;46.328;19.972;2023-03-05T09:06:10;100476.97;;;5.89;64.42
73063;BME280;61230;46.328;19.972;2023-03-05T09:08:40;100473.91;;;5.95;65.08
73063;BME280;61230;46.328;19.972;2023-03-05T09:11:11;100479.62;;;6.00;63.86
73063;BME280;61230;46.328;19.972;2023-03-05T09:13:39;100480.31;;;6.14;63.93
73063;BME280;61230;46.328;19.972;2023-03-05T09:16:11;100482.09;;;6.14;64.66
73063;BME280;61230;46.328;19.972;2023-03-05T09:18:39;100484.69;;;6.14;63.05
73063;BME280;61230;46.328;19.972;2023-03-05T09:21:09;100429.34;;;5.85;63.82
73063;BME280;61230;46.328;19.972;2023-03-05T09:23:37;100480.59;;;5.99;64.63
73063;BME280;61230;46.328;19.972;2023-03-05T09:26:07;100481.66;;;5.84;65.47
73063;BME280;61230;46.328;19.972;2023-03-05T09:28:35;100483.66;;;5.80;65.32
73063;BME280;61230;46.328;19.972;2023-03-05T09:31:05;100383.56;;;5.32;65.66
73063;BME280;61230;46.328;19.972;2023-03-05T09:33:33;100478.22;;;5.83;66.31
73063;BME280;61230;46.328;19.972;2023-03-05T09:36:02;100429.81;;;5.66;65.81
73063;BME280;61230;46.328;19.972;2023-03-05T09:38:30;100491.19;;;5.72;65.72
73063;BME280;61230;46.328;19.972;2023-03-05T09:41:06;100479.50;;;5.65;66.77
73063;BME280;61230;46.328;19.972;2023-03-05T09:43:47;100479.84;;;5.60;65.76
73063;BME280;61230;46.328;19.972;2023-03-05T09:46:28;100474.09;;;5.55;65.87
73063;BME280;61230;46.328;19.972;2023-03-05T09:51:37;100471.03;;;5.74;65.90
73063;BME280;61230;46.328;19.972;2023-03-05T09:54:22;100481.37;;;5.63;66.23
73063;BME280;61230;46.328;19.972;2023-03-05T09:56:55;100478.75;;;5.75;67.13
73063;BME280;61230;46.328;19.972;2023-03-05T09:59:34;100479.06;;;5.71;67.21
73063;BME280;61230;46.328;19.972;2023-03-05T10:02:15;100478.13;;;5.72;66.29
73063;BME280;61230;46.328;19.972;2023-03-05T10:04:51;100481.81;;;5.69;66.76
73063;BME280;61230;46.328;19.972;2023-03-05T10:07:35;100474.19;;;5.66;67.05
73063;BME280;61230;46.328;19.972;2023-03-05T10:10:14;100482.62;;;5.70;66.76
73063;BME280;61230;46.328;19.972;2023-03-05T10:12:46;100464.44;;;5.81;66.33
73063;BME280;61230;46.328;19.972;2023-03-05T10:18:04;100472.13;;;5.59;66.89
73063;BME280;61230;46.328;19.972;2023-03-05T10:29:35;100461.13;;;6.03;67.96
73063;BME280;61230;46.328;19.972;2023-03-05T10:40:34;100453.66;;;5.98;67.48
73063;BME280;61230;46.328;19.972;2023-03-05T10:45:42;100460.16;;;5.93;68.29
73063;BME280;61230;46.328;19.972;2023-03-05T10:51:22;100440.94;;;5.81;68.55
73063;BME280;61230;46.328;19.972;2023-03-05T10:53:55;100447.19;;;5.91;68.31
73063;BME280;61230;46.328;19.972;2023-03-05T10:56:26;100426.13;;;5.82;69.25
73063;BME280;61230;46.328;19.972;2023-03-05T10:58:56;100386.22;;;5.79;68.66
73063;BME280;61230;46.328;19.972;2023-03-05T11:01:26;100424.41;;;5.93;67.67
73063;BME280;61230;46.328;19.972;2023-03-05T11:04:00;100424.19;;;5.96;66.82
73063;BME280;61230;46.328;19.972;2023-03-05T11:09:20;100425.62;;;6.00;68.32
73063;BME280;61230;46.328;19.972;2023-03-05T11:14:36;100421.28;;;5.88;67.53
73063;BME280;61230;46.328;19.972;2023-03-05T11:17:45;100363.88;;;5.52;67.51
73063;BME280;61230;46.328;19.972;2023-03-05T11:20:40;100410.03;;;5.75;68.18
73063;BME280;61230;46.328;19.972;2023-03-05T11:23:22;100404.47;;;5.92;68.44
73063;BME280;61230;46.328;19.972;2023-03-05T11:28:42;100393.13;;;6.39;66.91
73063;BME280;61230;46.328;19.972;2023-03-05T11:31:27;100400.25;;;6.37;66.56
73063;BME280;61230;46.328;19.972;2023-03-05T11:34:04;100387.22;;;6.13;66.79
73063;BME280;61230;46.328;19.972;2023-03-05T11:36:33;100394.16;;;6.25;67.33
73063;BME280;61230;46.328;19.972;2023-03-05T11:39:13;100396.34;;;6.43;65.91
73063;BME280;61230;46.328;19.972;2023-03-05T11:41:51;100383.19;;;6.44;65.83
73063;BME280;61230;46.328;19.972;2023-03-05T11:45:08;100373.88;;;6.29;65.83
73063;BME280;61230;46.328;19.972;2023-03-05T11:47:17;100377.25;;;6.64;65.64
73063;BME280;61230;46.328;19.972;2023-03-05T11:49:54;100367.62;;;6.76;65.24
73063;BME280;61230;46.328;19.972;2023-03-05T11:52:27;100362.91;;;6.81;65.43
73063;BME280;61230;46.328;19.972;2023-03-05T11:55:17;100354.34;;;7.12;65.42
73063;BME280;61230;46.328;19.972;2023-03-05T12:00:43;100336.53;;;7.60;62.41
73063;BME280;61230;46.328;19.972;2023-03-05T12:03:16;100326.06;;;7.81;61.41
73063;BME280;61230;46.328;19.972;2023-03-05T12:05:49;100280.25;;;7.55;60.68
73063;BME280;61230;46.328;19.972;2023-03-05T12:08:29;100315.25;;;7.85;60.77
73063;BME280;61230;46.328;19.972;2023-03-05T12:11:03;100318.75;;;8.27;58.89
73063;BME280;61230;46.328;19.972;2023-03-05T12:13:36;100320.25;;;8.50;56.63
73063;BME280;61230;46.328;19.972;2023-03-05T12:19:37;100305.56;;;8.38;57.68
73063;BME280;61230;46.328;19.972;2023-03-05T12:22:20;100306.59;;;7.74;59.44
73063;BME280;61230;46.328;19.972;2023-03-05T12:24:49;100303.84;;;8.28;55.73
73063;BME280;61230;46.328;19.972;2023-03-05T12:27:34;100250.13;;;7.81;56.26
73063;BME280;61230;46.328;19.972;2023-03-05T12:30:03;100301.75;;;8.52;55.75
73063;BME280;61230;46.328;19.972;2023-03-05T12:35:01;100295.31;;;8.35;54.80
73063;BME280;61230;46.328;19.972;2023-03-05T12:47:43;100285.00;;;8.43;51.63
73063;BME280;61230;46.328;19.972;2023-03-05T12:55:35;100291.53;;;8.49;52.37
73063;BME280;61230;46.328;19.972;2023-03-05T13:00:45;100280.84;;;8.61;54.00
73063;BME280;61230;46.328;19.972;2023-03-05T13:03:22;100288.97;;;8.28;53.72
73063;BME280;61230;46.328;19.972;2023-03-05T13:05:52;100283.28;;;8.12;53.81
73063;BME280;61230;46.328;19.972;2023-03-05T13:08:30;100292.19;;;8.00;54.38
73063;BME280;61230;46.328;19.972;2023-03-05T13:11:01;100249.78;;;7.53;55.27
73063;BME280;61230;46.328;19.972;2023-03-05T13:13:33;100258.78;;;7.61;55.61
73063;BME280;61230;46.328;19.972;2023-03-05T13:16:03;100271.97;;;7.38;56.14
73063;BME280;61230;46.328;19.972;2023-03-05T13:18:31;100277.63;;;7.55;55.46
73063;BME280;61230;46.328;19.972;2023-03-05T13:21:14;100266.38;;;7.43;57.06
73063;BME280;61230;46.328;19.972;2023-03-05T13:23:53;100271.28;;;7.25;55.95
73063;BME280;61230;46.328;19.972;2023-03-05T13:29:20;100260.66;;;7.06;53.57
73063;BME280;61230;46.328;19.972;2023-03-05T13:31:54;100266.16;;;7.24;54.71
73063;BME280;61230;46.328;19.972;2023-03-05T13:34:29;100269.91;;;7.10;54.71
73063;BME280;61230;46.328;19.972;2023-03-05T13:37:24;100269.94;;;6.88;56.14
73063;BME280;61230;46.328;19.972;2023-03-05T13:39:59;100264.91;;;7.07;56.35
73063;BME280;61230;46.328;19.972;2023-03-05T13:42:30;100257.47;;;6.91;57.38
73063;BME280;61230;46.328;19.972;2023-03-05T13:45:06;100221.47;;;6.73;57.29
73063;BME280;61230;46.328;19.972;2023-03-05T13:48:05;100262.56;;;6.93;55.94
73063;BME280;61230;46.328;19.972;2023-03-05T13:50:36;100260.09;;;6.80;56.02
73063;BME280;61230;46.328;19.972;2023-03-05T13:53:20;100254.50;;;6.74;56.11
73063;BME280;61230;46.328;19.972;2023-03-05T13:55:52;100217.81;;;6.42;56.79
73063;BME280;61230;46.328;19.972;2023-03-05T13:58:55;100202.59;;;6.36;57.39
73063;BME280;61230;46.328;19.972;2023-03-05T14:04:04;100247.75;;;6.60;58.08
73063;BME280;61230;46.328;19.972;2023-03-05T14:06:40;100198.56;;;6.43;57.99
73063;BME280;61230;46.328;19.972;2023-03-05T14:09:50;100247.13;;;6.79;58.30
73063;BME280;61230;46.328;19.972;2023-03-05T14:12:36;100193.72;;;6.50;57.94
73063;BME280;61230;46.328;19.972;2023-03-05T14:15:29;100232.28;;;6.79;57.87
73063;BME280;61230;46.328;19.972;2023-03-05T14:18:18;100246.66;;;6.74;58.41
73063;BME280;61230;46.328;19.972;2023-03-05T14:21:08;100244.50;;;6.79;59.65
73063;BME280;61230;46.328;19.972;2023-03-05T14:23:47;100235.94;;;6.88;59.14
73063;BME280;61230;46.328;19.972;2023-03-05T14:34:26;100230.06;;;6.64;58.63
73063;BME280;61230;46.328;19.972;2023-03-05T14:37:01;100178.25;;;6.47;58.28